createdAt,value
2018-07-21T00:00:23.189Z,2.30
2018-07-21T00:02:51.941Z,1.70
2018-07-21T00:05:20.491Z,2.20
2018-07-21T00:07:49.125Z,2.07
2018-07-21T00:10:18.325Z,2.40
2018-07-21T00:12:46.886Z,2.33
2018-07-21T00:15:15.437Z,2.20
2018-07-21T00:17:43.973Z,2.10
2018-07-21T00:20:12.509Z,2.03
2018-07-21T00:22:41.037Z,2.27
2018-07-21T00:25:10.337Z,2.10
2018-07-21T00:27:39.954Z,2.00
2018-07-21T00:30:09.885Z,1.87
2018-07-21T00:32:39.109Z,2.13
2018-07-21T00:35:10.279Z,2.13
2018-07-21T00:37:38.837Z,2.30
2018-07-21T00:40:07.384Z,1.90
2018-07-21T00:42:35.927Z,2.10
2018-07-21T00:45:04.773Z,1.87
2018-07-21T00:47:33.323Z,1.80
2018-07-21T00:50:02.756Z,2.33
2018-07-21T00:52:31.306Z,2.17
2018-07-21T00:54:59.842Z,2.10
2018-07-21T00:57:28.363Z,2.00
2018-07-21T00:59:56.998Z,2.40
2018-07-21T01:02:25.530Z,2.13
2018-07-21T01:04:54.049Z,2.37
2018-07-21T01:07:23.597Z,2.03
2018-07-21T01:09:52.758Z,2.37
2018-07-21T01:12:21.273Z,2.13
2018-07-21T01:14:53.701Z,2.20
2018-07-21T01:17:24.384Z,1.93
2018-07-21T01:25:16.505Z,2.43
2018-07-21T01:27:45.393Z,2.10
2018-07-21T01:30:15.296Z,2.47
2018-07-21T01:32:46.326Z,2.17
2018-07-21T01:35:17.161Z,2.33
2018-07-21T01:37:45.740Z,2.17
2018-07-21T01:40:25.714Z,2.40
2018-07-21T01:43:04.116Z,2.17
2018-07-21T01:45:36.018Z,2.30
2018-07-21T01:48:11.946Z,2.13
2018-07-21T01:50:42.731Z,2.33
2018-07-21T01:53:16.621Z,2.10
2018-07-21T01:55:47.713Z,2.10
2018-07-21T01:58:20.810Z,1.97
2018-07-21T02:00:55.365Z,2.17
2018-07-21T02:03:23.974Z,2.47
2018-07-21T02:05:52.536Z,2.13
2018-07-21T02:08:22.454Z,2.17
2018-07-21T02:10:54.111Z,1.90
2018-07-21T02:13:23.551Z,2.25
2018-07-21T02:15:52.727Z,1.90
2018-07-21T02:18:21.409Z,1.97
2018-07-21T02:20:49.952Z,2.20
2018-07-21T02:23:18.621Z,2.03
2018-07-21T02:25:48.093Z,1.80
2018-07-21T02:28:16.649Z,2.10
2018-07-21T02:30:48.599Z,2.30
2018-07-21T02:33:20.133Z,2.00
2018-07-21T02:35:50.438Z,1.80
2018-07-21T02:38:20.432Z,2.07
2018-07-21T02:40:49.170Z,2.10
2018-07-21T02:43:23.864Z,1.87
2018-07-21T02:45:52.453Z,2.17
2018-07-21T02:48:20.982Z,2.10
2018-07-21T02:50:49.623Z,1.80
2018-07-21T02:53:18.189Z,2.20
2018-07-21T02:55:47.415Z,2.20
2018-07-21T02:58:16.205Z,2.13
2018-07-21T03:00:44.750Z,1.80
2018-07-21T03:03:13.257Z,2.07
2018-07-21T03:05:41.822Z,2.30
2018-07-21T03:08:10.426Z,1.90
2018-07-21T03:10:39.774Z,1.90
2018-07-21T03:13:08.349Z,2.20
2018-07-21T03:15:36.857Z,2.03
2018-07-21T03:18:05.410Z,2.23
2018-07-21T03:20:33.929Z,2.00
2018-07-21T03:23:02.497Z,2.80
2018-07-21T03:25:31.731Z,2.30
2018-07-21T03:28:00.293Z,2.30
2018-07-21T03:30:28.843Z,2.43
2018-07-21T03:32:57.462Z,2.30
2018-07-21T03:35:25.972Z,2.43
2018-07-21T03:37:54.514Z,2.20
2018-07-21T03:40:23.727Z,1.90
2018-07-21T03:42:52.266Z,2.10
2018-07-21T03:45:20.869Z,2.20
2018-07-21T03:47:50.054Z,2.30
2018-07-21T03:50:19.634Z,2.50
2018-07-21T03:52:48.462Z,2.23
2018-07-21T03:55:17.006Z,2.23
2018-07-21T03:57:45.793Z,2.33
2018-07-21T04:00:15.167Z,2.30
2018-07-21T04:02:44.653Z,3.00
2018-07-21T04:05:13.919Z,2.10
2018-07-21T04:07:42.500Z,2.20
2018-07-21T04:10:11.038Z,2.40
2018-07-21T04:12:39.566Z,2.07
2018-07-21T04:15:15.604Z,2.23
2018-07-21T04:17:46.036Z,2.40
2018-07-21T04:20:19.712Z,2.30
2018-07-21T04:22:50.405Z,2.20
2018-07-21T04:25:32.442Z,2.17
2018-07-21T04:28:13.701Z,2.23
2018-07-21T04:30:56.199Z,2.57
2018-07-21T04:33:30.717Z,2.77
2018-07-21T04:36:01.450Z,1.93
2018-07-21T04:41:06.401Z,2.10
2018-07-21T04:43:41.992Z,2.63
2018-07-21T04:46:15.964Z,2.27
2018-07-21T04:48:46.656Z,2.03
2018-07-21T04:51:32.518Z,1.73
2018-07-21T04:54:10.900Z,1.93
2018-07-21T04:56:50.493Z,1.90
2018-07-21T04:59:20.497Z,2.37
2018-07-21T05:01:51.467Z,1.97
2018-07-21T05:04:21.106Z,1.93
2018-07-21T05:06:50.521Z,2.00
2018-07-21T05:09:24.652Z,1.90
2018-07-21T05:11:54.753Z,2.07
2018-07-21T05:14:30.258Z,2.13
2018-07-21T05:17:02.287Z,2.07
2018-07-21T05:19:38.462Z,2.10
2018-07-21T05:22:14.848Z,2.17
2018-07-21T05:24:50.112Z,2.07
2018-07-21T05:27:24.080Z,1.80
2018-07-21T05:29:53.708Z,2.00
2018-07-21T05:32:32.016Z,2.00
2018-07-21T05:35:17.384Z,2.00
2018-07-21T05:37:54.999Z,1.90
2018-07-21T05:40:23.561Z,1.90
2018-07-21T05:43:02.969Z,2.50
2018-07-21T05:45:43.549Z,2.50
2018-07-21T05:48:19.173Z,2.20
2018-07-21T05:50:53.975Z,2.10
2018-07-21T05:53:26.916Z,1.80
2018-07-21T05:55:59.861Z,2.50
2018-07-21T05:58:42.265Z,2.30
2018-07-21T06:01:12.870Z,2.43
2018-07-21T06:03:41.933Z,2.27
2018-07-21T06:06:11.556Z,2.40
2018-07-21T06:08:40.447Z,2.43
2018-07-21T06:11:12.561Z,2.17
2018-07-21T06:13:50.679Z,2.63
2018-07-21T06:16:21.307Z,2.47
2018-07-21T06:18:50.561Z,2.50
2018-07-21T06:21:19.132Z,2.63
2018-07-21T06:23:47.673Z,2.40
2018-07-21T06:26:16.241Z,2.70
2018-07-21T06:28:45.339Z,2.87
2018-07-21T06:31:14.431Z,2.50
2018-07-21T06:33:42.988Z,2.10
2018-07-21T06:36:11.902Z,2.20
2018-07-21T06:38:40.424Z,2.50
2018-07-21T06:41:09.377Z,2.43
2018-07-21T06:43:38.046Z,2.13
2018-07-21T06:46:06.682Z,2.33
2018-07-21T06:48:35.185Z,2.33
2018-07-21T06:51:03.714Z,2.70
2018-07-21T06:53:32.264Z,2.17
2018-07-21T06:56:00.834Z,2.63
2018-07-21T06:58:29.706Z,2.50
2018-07-21T07:00:58.209Z,2.60
2018-07-21T07:03:26.729Z,2.07
2018-07-21T07:05:55.317Z,2.03
2018-07-21T07:08:31.257Z,2.10
2018-07-21T07:10:59.841Z,2.30
2018-07-21T07:13:28.369Z,2.30
2018-07-21T07:15:58.757Z,2.50
2018-07-21T07:18:28.852Z,2.20
2018-07-21T07:21:00.722Z,2.33
2018-07-21T07:23:31.450Z,2.47
2018-07-21T07:25:59.966Z,2.50
2018-07-21T07:28:32.597Z,2.13
2018-07-21T07:31:01.134Z,2.13
2018-07-21T07:33:30.108Z,2.53
2018-07-21T07:36:03.254Z,2.40
2018-07-21T07:38:31.781Z,2.37
2018-07-21T07:41:00.303Z,2.03
2018-07-21T07:43:30.665Z,2.30
2018-07-21T07:45:59.309Z,2.87
2018-07-21T07:48:29.185Z,2.17
2018-07-21T07:50:58.376Z,2.23
2018-07-21T07:53:27.751Z,2.37
2018-07-21T07:55:56.364Z,2.37
2018-07-21T07:58:24.910Z,2.27
2018-07-21T08:00:53.460Z,2.07
2018-07-21T08:03:22.010Z,2.57
2018-07-21T08:05:50.613Z,2.23
2018-07-21T08:08:20.521Z,2.00
2018-07-21T08:10:51.709Z,2.87
2018-07-21T08:13:32.790Z,2.30
2018-07-21T08:16:13.779Z,2.20
2018-07-21T08:18:46.761Z,2.20
2018-07-21T08:21:26.539Z,2.20
2018-07-21T08:23:55.190Z,2.27
2018-07-21T08:26:24.097Z,2.30
2018-07-21T08:28:53.617Z,2.80
2018-07-21T08:31:29.295Z,2.47
2018-07-21T08:34:06.213Z,2.90
2018-07-21T08:36:39.290Z,2.40
2018-07-21T08:39:09.320Z,2.70
2018-07-21T08:41:37.839Z,2.27
2018-07-21T08:44:09.358Z,3.37
2018-07-21T08:46:39.459Z,2.17
2018-07-21T08:49:07.957Z,2.30
2018-07-21T08:51:48.136Z,2.57
2018-07-21T08:54:19.671Z,2.53
2018-07-21T08:56:59.807Z,3.00
2018-07-21T08:59:28.289Z,2.23
2018-07-21T09:01:57.753Z,1.93
2018-07-21T09:04:28.001Z,2.20
2018-07-21T09:06:57.206Z,2.13
2018-07-21T09:09:25.708Z,2.50
2018-07-21T09:11:54.249Z,2.93
2018-07-21T09:14:22.857Z,2.60
2018-07-21T09:16:52.047Z,3.20
2018-07-21T09:19:20.862Z,2.03
2018-07-21T09:21:49.397Z,2.03
2018-07-21T09:24:18.015Z,3.77
2018-07-21T09:26:46.756Z,1.97
2018-07-21T09:29:15.688Z,2.10
2018-07-21T09:31:44.226Z,2.10
2018-07-21T09:34:12.779Z,1.87
2018-07-21T09:36:41.453Z,2.10
2018-07-21T09:39:11.253Z,1.73
2018-07-21T09:41:40.776Z,1.83
2018-07-21T09:44:10.215Z,2.90
2018-07-21T09:46:38.935Z,2.30
2018-07-21T09:49:07.554Z,1.90
2018-07-21T09:51:36.946Z,2.43
2018-07-21T09:54:06.119Z,2.53
2018-07-21T09:56:35.593Z,2.30
2018-07-21T09:59:05.576Z,2.20
2018-07-21T10:01:34.335Z,2.30
2018-07-21T10:04:03.481Z,2.07
2018-07-21T10:06:32.999Z,2.00
2018-07-21T10:09:02.496Z,2.30
2018-07-21T10:11:31.896Z,2.37
2018-07-21T10:14:14.592Z,2.43
2018-07-21T10:16:43.197Z,1.80
2018-07-21T10:19:15.984Z,2.30
2018-07-21T10:21:47.846Z,1.83
2018-07-21T10:25:23.996Z,2.17
2018-07-21T10:28:10.426Z,2.10
2018-07-21T10:30:39.099Z,2.27
2018-07-21T10:33:07.669Z,2.30
2018-07-21T10:35:36.249Z,2.40
2018-07-21T10:38:06.357Z,2.07
2018-07-21T10:40:35.843Z,2.20
2018-07-21T10:43:04.483Z,2.37
2018-07-21T10:45:38.834Z,2.33
2018-07-21T10:48:07.544Z,2.33
2018-07-21T10:50:36.133Z,2.10
2018-07-21T10:53:04.777Z,1.97
2018-07-21T10:55:33.409Z,2.23
2018-07-21T10:58:01.961Z,2.43
2018-07-21T11:00:31.459Z,2.17
2018-07-21T11:03:00.049Z,2.87
2018-07-21T11:05:28.902Z,2.30
2018-07-21T11:07:57.617Z,2.60
2018-07-21T11:10:26.258Z,2.23
2018-07-21T11:12:54.876Z,2.20
2018-07-21T11:15:23.519Z,2.37
2018-07-21T11:17:52.039Z,2.27
2018-07-21T11:20:21.450Z,2.13
2018-07-21T11:22:50.036Z,2.40
2018-07-21T11:25:18.726Z,2.20
2018-07-21T11:27:47.521Z,2.40
2018-07-21T11:30:19.774Z,2.63
2018-07-21T11:32:49.063Z,2.30
2018-07-21T11:35:17.724Z,2.27
2018-07-21T11:37:46.318Z,2.77
2018-07-21T11:40:14.889Z,2.20
2018-07-21T11:42:44.276Z,2.70
2018-07-21T11:45:14.437Z,2.50
2018-07-21T11:47:42.964Z,2.47
2018-07-21T11:50:11.520Z,2.37
2018-07-21T11:52:40.111Z,2.40
2018-07-21T11:55:08.642Z,2.27
2018-07-21T11:57:37.184Z,2.27
2018-07-21T12:00:05.761Z,2.40
2018-07-21T12:02:35.777Z,2.73
2018-07-21T12:05:05.399Z,2.37
2018-07-21T12:07:33.969Z,2.30
2018-07-21T12:10:03.171Z,2.57
2018-07-21T12:12:31.710Z,2.87
2018-07-21T12:15:01.002Z,2.10
2018-07-21T12:17:29.619Z,2.40
2018-07-21T12:19:58.153Z,2.50
2018-07-21T12:22:47.903Z,2.40
2018-07-21T12:25:28.817Z,2.07
2018-07-21T12:27:57.489Z,2.40
2018-07-21T12:30:31.602Z,2.57
2018-07-21T12:33:03.799Z,2.30
2018-07-21T12:35:43.363Z,2.03
2018-07-21T12:38:19.805Z,2.30
2018-07-21T12:40:54.427Z,2.03
2018-07-21T12:43:27.442Z,2.13
2018-07-21T12:45:56.258Z,2.40
2018-07-21T12:48:30.154Z,2.00
2018-07-21T12:50:59.941Z,2.10
2018-07-21T12:53:29.963Z,2.53
2018-07-21T12:55:59.076Z,2.30
2018-07-21T12:58:29.070Z,2.40
2018-07-21T13:01:12.093Z,1.90
2018-07-21T13:03:48.190Z,2.43
2018-07-21T13:06:20.136Z,2.40
2018-07-21T13:08:54.107Z,2.20
2018-07-21T13:14:05.805Z,1.80
2018-07-21T13:16:36.519Z,2.10
2018-07-21T13:19:05.314Z,2.60
2018-07-21T13:21:36.141Z,2.43
2018-07-21T13:24:08.305Z,2.80
2018-07-21T13:26:38.030Z,2.70
2018-07-21T13:29:12.125Z,2.30
2018-07-21T13:31:41.695Z,2.50
2018-07-21T13:34:20.295Z,2.27
2018-07-21T13:36:54.825Z,2.47
2018-07-21T13:39:37.750Z,2.93
2018-07-21T13:42:11.712Z,2.27
2018-07-21T13:44:47.911Z,2.20
2018-07-21T13:47:19.411Z,3.00
2018-07-21T13:49:50.162Z,2.67
2018-07-21T13:52:38.108Z,2.80
2018-07-21T13:55:08.486Z,2.00
2018-07-21T13:57:41.105Z,2.13
2018-07-21T14:00:17.399Z,2.40
2018-07-21T14:02:56.850Z,2.03
2018-07-21T14:05:36.739Z,3.67
2018-07-21T14:08:14.004Z,2.80
2018-07-21T14:10:43.049Z,2.83
2018-07-21T14:13:13.101Z,3.17
2018-07-21T14:15:44.874Z,2.50
2018-07-21T14:18:15.168Z,2.40
2018-07-21T14:20:49.613Z,2.60
2018-07-21T14:23:25.740Z,3.33
2018-07-21T14:25:58.054Z,2.70
2018-07-21T14:28:31.129Z,2.10
2018-07-21T14:31:01.709Z,2.30
2018-07-21T14:33:31.989Z,2.53
2018-07-21T14:36:05.366Z,2.10
2018-07-21T14:38:34.521Z,2.40
2018-07-21T14:41:03.041Z,2.07
2018-07-21T14:43:31.589Z,2.20
2018-07-21T14:46:01.001Z,2.10
2018-07-21T14:48:29.577Z,2.30
2018-07-21T14:50:58.441Z,2.50
2018-07-21T14:53:28.119Z,2.07
2018-07-21T14:55:57.765Z,2.30
2018-07-21T14:58:26.919Z,2.10
2018-07-21T15:00:55.473Z,2.33
2018-07-21T15:03:24.027Z,2.10
2018-07-21T15:05:52.861Z,2.07
2018-07-21T15:08:22.105Z,2.53
2018-07-21T15:10:50.617Z,2.33
2018-07-21T15:13:19.982Z,2.70
2018-07-21T15:15:49.358Z,2.30
2018-07-21T15:18:18.989Z,2.10
2018-07-21T15:20:48.356Z,2.20
2018-07-21T15:23:16.868Z,2.00
2018-07-21T15:25:46.213Z,2.10
2018-07-21T15:28:14.765Z,2.20
2018-07-21T15:30:43.374Z,2.07
2018-07-21T15:33:12.473Z,2.30
2018-07-21T15:35:41.441Z,2.33
2018-07-21T15:38:10.401Z,2.30
2018-07-21T15:40:39.044Z,2.23
2018-07-21T15:43:07.593Z,1.90
2018-07-21T15:45:37.479Z,2.10
2018-07-21T15:48:06.001Z,2.20
2018-07-21T15:50:35.686Z,2.33
2018-07-21T15:53:04.230Z,2.33
2018-07-21T15:55:33.517Z,2.40
2018-07-21T15:58:02.629Z,2.30
2018-07-21T16:00:31.267Z,2.50
2018-07-21T16:02:59.782Z,2.00
2018-07-21T16:05:28.335Z,2.40
2018-07-21T16:07:56.849Z,1.90
2018-07-21T16:10:25.357Z,2.30
2018-07-21T16:12:54.428Z,2.47
2018-07-21T16:15:23.090Z,2.10
2018-07-21T16:17:51.583Z,2.30
2018-07-21T16:20:20.101Z,2.10
2018-07-21T16:22:48.651Z,2.47
2018-07-21T16:25:18.102Z,2.40
2018-07-21T16:27:47.966Z,2.30
2018-07-21T16:30:17.057Z,2.00
2018-07-21T16:32:45.653Z,2.13
2018-07-21T16:35:14.200Z,2.90
2018-07-21T16:37:42.704Z,2.30
2018-07-21T16:40:11.263Z,2.63
2018-07-21T16:42:39.769Z,2.57
2018-07-21T16:45:08.307Z,2.43
2018-07-21T16:47:36.849Z,2.37
2018-07-21T16:50:05.410Z,2.57
2018-07-21T16:52:33.946Z,2.40
2018-07-21T16:55:02.561Z,2.80
2018-07-21T16:57:32.865Z,2.37
2018-07-21T17:00:02.189Z,2.60
2018-07-21T17:02:31.490Z,2.20
2018-07-21T17:05:00.181Z,2.70
2018-07-21T17:07:29.547Z,2.63
2018-07-21T17:09:58.889Z,2.80
2018-07-21T17:12:28.037Z,2.20
2018-07-21T17:14:56.667Z,2.43
2018-07-21T17:17:25.208Z,2.43
2018-07-21T17:19:53.724Z,2.00
2018-07-21T17:22:22.294Z,2.23
2018-07-21T17:24:50.836Z,2.00
2018-07-21T17:27:20.594Z,2.17
2018-07-21T17:29:49.178Z,2.87
2018-07-21T17:32:17.680Z,2.23
2018-07-21T17:34:46.272Z,2.10
2018-07-21T17:37:15.361Z,2.20
2018-07-21T17:39:44.500Z,2.20
2018-07-21T17:42:13.917Z,1.87
2018-07-21T17:44:43.787Z,1.73
2018-07-21T17:47:19.551Z,2.03
2018-07-21T17:49:49.371Z,2.07
2018-07-21T17:52:25.657Z,2.40
2018-07-21T17:55:05.473Z,2.07
2018-07-21T17:57:36.471Z,1.60
2018-07-21T18:00:05.686Z,1.93
2018-07-21T18:02:35.063Z,1.93
2018-07-21T18:05:03.858Z,1.60
2018-07-21T18:07:32.396Z,2.33
2018-07-21T18:10:00.911Z,2.10
2018-07-21T18:12:29.426Z,1.60
2018-07-21T18:15:06.798Z,2.17
2018-07-21T18:17:35.311Z,2.10
2018-07-21T18:22:52.212Z,1.67
2018-07-21T18:25:20.806Z,1.80
2018-07-21T18:27:50.430Z,1.90
2018-07-21T18:30:25.586Z,1.90
2018-07-21T18:35:36.567Z,2.00
2018-07-21T18:38:05.299Z,1.67
2018-07-21T18:40:33.836Z,1.90
2018-07-21T18:43:03.464Z,1.90
2018-07-21T18:45:31.988Z,1.60
2018-07-21T18:48:00.513Z,1.53
2018-07-21T18:50:30.845Z,1.73
2018-07-21T18:52:59.361Z,1.70
2018-07-21T18:55:28.017Z,1.50
2018-07-21T18:57:56.598Z,1.50
2018-07-21T19:00:25.141Z,1.40
2018-07-21T19:02:53.722Z,1.80
2018-07-21T19:05:23.581Z,1.70
2018-07-21T19:07:52.719Z,1.43
2018-07-21T19:10:21.294Z,1.70
2018-07-21T19:12:50.511Z,1.53
2018-07-21T19:17:25.417Z,1.30
2018-07-21T19:19:59.266Z,1.40
2018-07-21T19:22:27.817Z,1.07
2018-07-21T19:24:57.592Z,1.20
2018-07-21T19:27:34.517Z,1.17
2018-07-21T19:30:08.932Z,1.30
2018-07-21T19:32:54.392Z,1.30
2018-07-21T19:35:32.031Z,1.23
2018-07-21T19:38:02.744Z,1.60
2018-07-21T19:40:31.308Z,1.30
2018-07-21T19:43:06.451Z,1.13
2018-07-21T19:45:40.254Z,1.43
2018-07-21T19:48:16.029Z,1.57
2018-07-21T19:50:45.049Z,1.60
2018-07-21T19:53:16.950Z,1.47
2018-07-21T19:56:09.494Z,1.20
2018-07-21T19:58:49.639Z,1.60
2018-07-21T20:01:21.635Z,1.60
2018-07-21T20:06:35.325Z,1.37
2018-07-21T20:09:08.877Z,1.50
2018-07-21T20:11:43.608Z,1.40
2018-07-21T20:14:13.301Z,1.43
2018-07-21T20:16:43.801Z,1.40
2018-07-21T20:19:12.411Z,1.20
2018-07-21T20:21:41.854Z,1.13
2018-07-21T20:24:13.047Z,1.07
2018-07-21T20:26:43.461Z,1.47
2018-07-21T20:29:12.766Z,1.73
2018-07-21T20:31:41.265Z,1.60
2018-07-21T20:34:11.851Z,1.67
2018-07-21T20:36:58.781Z,1.50
2018-07-21T20:39:31.247Z,1.30
2018-07-21T20:42:05.993Z,1.50
2018-07-21T20:44:37.185Z,1.10
2018-07-21T20:47:11.327Z,1.37
2018-07-21T20:49:45.194Z,1.33
2018-07-21T20:52:20.961Z,1.27
2018-07-21T20:57:30.671Z,1.13
2018-07-21T21:00:00.086Z,1.43
2018-07-21T21:05:32.842Z,1.33
2018-07-21T21:08:02.278Z,1.37
2018-07-21T21:10:31.730Z,1.57
2018-07-21T21:13:19.905Z,1.60
2018-07-21T21:15:51.301Z,1.37
2018-07-21T21:18:19.845Z,1.83
2018-07-21T21:20:48.394Z,1.70
2018-07-21T21:23:22.977Z,1.37
2018-07-21T21:25:51.509Z,1.83
2018-07-21T21:28:23.525Z,1.60
2018-07-21T21:30:52.057Z,1.67
2018-07-21T21:33:20.612Z,1.97
2018-07-21T21:35:50.840Z,1.80
2018-07-21T21:38:24.161Z,1.40
2018-07-21T21:40:58.063Z,1.80
2018-07-21T21:43:26.631Z,2.00
2018-07-21T21:45:55.932Z,1.93
2018-07-21T21:48:24.584Z,1.43
2018-07-21T21:50:53.114Z,1.90
2018-07-21T21:53:22.471Z,1.87
2018-07-21T21:55:52.028Z,2.20
2018-07-21T21:58:20.885Z,2.03
2018-07-21T22:01:09.093Z,1.73
2018-07-21T22:03:39.600Z,1.87
2018-07-21T22:06:08.137Z,1.77
2018-07-21T22:08:36.665Z,1.80
2018-07-21T22:11:05.410Z,2.17
2018-07-21T22:13:33.954Z,2.27
2018-07-21T22:16:02.499Z,2.40
2018-07-21T22:18:32.412Z,2.70
2018-07-21T22:21:00.970Z,2.90
2018-07-21T22:23:29.509Z,2.80
2018-07-21T22:25:58.028Z,2.47
2018-07-21T22:28:26.532Z,2.70
2018-07-21T22:30:55.110Z,2.53
2018-07-21T22:33:23.655Z,2.97
2018-07-21T22:35:52.215Z,3.10
2018-07-21T22:38:21.802Z,3.30
2018-07-21T22:40:50.313Z,3.60
2018-07-21T22:43:18.901Z,3.40
2018-07-21T22:45:47.420Z,3.77
2018-07-21T22:48:15.969Z,3.93
2018-07-21T22:50:44.603Z,3.90
2018-07-21T22:53:13.118Z,3.90
2018-07-21T22:55:41.651Z,3.90
2018-07-21T22:58:10.184Z,4.10
2018-07-21T23:00:38.752Z,3.70
2018-07-21T23:03:07.664Z,4.07
2018-07-21T23:05:37.471Z,4.37
2018-07-21T23:08:06.358Z,4.77
2018-07-21T23:10:34.869Z,4.87
2018-07-21T23:13:03.449Z,5.00
2018-07-21T23:15:31.995Z,5.13
2018-07-21T23:18:00.547Z,4.67
2018-07-21T23:20:30.296Z,4.50
2018-07-21T23:22:58.850Z,5.67
2018-07-21T23:25:27.388Z,4.83
2018-07-21T23:27:55.937Z,5.17
2018-07-21T23:30:24.488Z,5.13
2018-07-21T23:32:52.978Z,4.57
2018-07-21T23:35:21.510Z,4.80
2018-07-21T23:37:50.040Z,5.10
2018-07-21T23:40:18.585Z,4.50
2018-07-21T23:42:47.097Z,4.83
2018-07-21T23:45:15.636Z,4.87
2018-07-21T23:47:44.197Z,4.73
2018-07-21T23:50:12.737Z,5.30
2018-07-21T23:52:41.265Z,5.53
2018-07-21T23:55:10.521Z,6.93
2018-07-21T23:57:39.242Z,6.43
